sensor_id;sensor_type;location;lat;lon;timestamp;temperature;humidity
64652;HTU21D;51062;45.120;37.660;2023-05-07T00:01:24;16.30;61.60
64652;HTU21D;51062;45.120;37.660;2023-05-07T00:03:51;16.28;61.60
64652;HTU21D;51062;45.120;37.660;2023-05-07T00:06:18;16.25;61.63
64652;HTU21D;51062;45.120;37.660;2023-05-07T00:08:45;16.24;61.70
64652;HTU21D;51062;45.120;37.660;2023-05-07T00:11:11;16.21;61.70
64652;HTU21D;51062;45.120;37.660;2023-05-07T00:13:40;16.17;61.71
64652;HTU21D;51062;45.120;37.660;2023-05-07T00:16:06;16.17;61.69
64652;HTU21D;51062;45.120;37.660;2023-05-07T00:18:32;16.17;61.70
64652;HTU21D;51062;45.120;37.660;2023-05-07T00:21:01;16.15;61.68
64652;HTU21D;51062;45.120;37.660;2023-05-07T00:23:29;16.15;61.68
64652;HTU21D;51062;45.120;37.660;2023-05-07T00:25:56;16.15;61.70
64652;HTU21D;51062;45.120;37.660;2023-05-07T00:28:24;16.10;61.71
64652;HTU21D;51062;45.120;37.660;2023-05-07T00:30:52;16.07;61.74
64652;HTU21D;51062;45.120;37.660;2023-05-07T00:33:19;16.05;61.79
64652;HTU21D;51062;45.120;37.660;2023-05-07T00:35:46;16.03;61.82
64652;HTU21D;51062;45.120;37.660;2023-05-07T00:38:12;16.01;61.85
64652;HTU21D;51062;45.120;37.660;2023-05-07T00:40:40;15.97;61.89
64652;HTU21D;51062;45.120;37.660;2023-05-07T00:43:07;15.93;61.92
64652;HTU21D;51062;45.120;37.660;2023-05-07T00:45:33;15.92;61.95
64652;HTU21D;51062;45.120;37.660;2023-05-07T00:48:02;15.90;61.94
64652;HTU21D;51062;45.120;37.660;2023-05-07T00:50:50;15.89;61.90
64652;HTU21D;51062;45.120;37.660;2023-05-07T00:53:16;15.89;61.90
64652;HTU21D;51062;45.120;37.660;2023-05-07T00:55:43;15.87;61.89
64652;HTU21D;51062;45.120;37.660;2023-05-07T00:58:10;15.86;61.89
64652;HTU21D;51062;45.120;37.660;2023-05-07T01:00:36;15.86;61.88
64652;HTU21D;51062;45.120;37.660;2023-05-07T01:03:03;15.84;61.89
64652;HTU21D;51062;45.120;37.660;2023-05-07T01:05:34;15.82;61.91
64652;HTU21D;51062;45.120;37.660;2023-05-07T01:08:01;15.78;61.95
64652;HTU21D;51062;45.120;37.660;2023-05-07T01:10:29;15.76;61.99
64652;HTU21D;51062;45.120;37.660;2023-05-07T01:12:58;15.72;62.06
64652;HTU21D;51062;45.120;37.660;2023-05-07T01:15:24;15.69;62.12
64652;HTU21D;51062;45.120;37.660;2023-05-07T01:17:51;15.65;62.19
64652;HTU21D;51062;45.120;37.660;2023-05-07T01:20:24;15.63;62.18
64652;HTU21D;51062;45.120;37.660;2023-05-07T01:22:54;15.61;62.18
64652;HTU21D;51062;45.120;37.660;2023-05-07T01:25:22;15.61;62.18
64652;HTU21D;51062;45.120;37.660;2023-05-07T01:27:51;15.57;62.25
64652;HTU21D;51062;45.120;37.660;2023-05-07T01:30:21;15.55;62.31
64652;HTU21D;51062;45.120;37.660;2023-05-07T01:32:52;15.52;62.32
64652;HTU21D;51062;45.120;37.660;2023-05-07T01:35:45;15.49;62.38
64652;HTU21D;51062;45.120;37.660;2023-05-07T01:38:13;15.46;62.41
64652;HTU21D;51062;45.120;37.660;2023-05-07T01:40:40;15.45;62.44
64652;HTU21D;51062;45.120;37.660;2023-05-07T01:43:08;15.44;62.48
64652;HTU21D;51062;45.120;37.660;2023-05-07T01:45:38;15.42;62.47
64652;HTU21D;51062;45.120;37.660;2023-05-07T01:48:07;15.40;62.48
64652;HTU21D;51062;45.120;37.660;2023-05-07T01:50:33;15.39;62.47
64652;HTU21D;51062;45.120;37.660;2023-05-07T01:53:01;15.37;62.50
64652;HTU21D;51062;45.120;37.660;2023-05-07T01:55:29;15.37;62.58
64652;HTU21D;51062;45.120;37.660;2023-05-07T01:57:57;15.33;62.58
64652;HTU21D;51062;45.120;37.660;2023-05-07T02:00:24;15.31;62.59
64652;HTU21D;51062;45.120;37.660;2023-05-07T02:02:51;15.28;62.63
64652;HTU21D;51062;45.120;37.660;2023-05-07T02:05:37;15.26;62.60
64652;HTU21D;51062;45.120;37.660;2023-05-07T02:08:16;15.23;62.60
64652;HTU21D;51062;45.120;37.660;2023-05-07T02:10:44;15.21;62.65
64652;HTU21D;51062;45.120;37.660;2023-05-07T02:13:10;15.17;62.67
64652;HTU21D;51062;45.120;37.660;2023-05-07T02:15:39;15.14;62.69
64652;HTU21D;51062;45.120;37.660;2023-05-07T02:18:25;15.13;62.72
64652;HTU21D;51062;45.120;37.660;2023-05-07T02:20:52;15.11;62.72
64652;HTU21D;51062;45.120;37.660;2023-05-07T02:23:20;15.10;62.71
64652;HTU21D;51062;45.120;37.660;2023-05-07T02:26:07;15.08;62.76
64652;HTU21D;51062;45.120;37.660;2023-05-07T02:28:35;15.07;62.75
64652;HTU21D;51062;45.120;37.660;2023-05-07T02:31:03;15.04;62.79
64652;HTU21D;51062;45.120;37.660;2023-05-07T02:33:30;15.04;62.79
64652;HTU21D;51062;45.120;37.660;2023-05-07T02:36:08;15.02;62.83
64652;HTU21D;51062;45.120;37.660;2023-05-07T02:38:37;15.02;62.75
64652;HTU21D;51062;45.120;37.660;2023-05-07T02:41:04;15.02;62.74
64652;HTU21D;51062;45.120;37.660;2023-05-07T02:43:52;14.99;62.77
64652;HTU21D;51062;45.120;37.660;2023-05-07T02:46:20;14.98;62.77
64652;HTU21D;51062;45.120;37.660;2023-05-07T02:48:52;14.97;62.79
64652;HTU21D;51062;45.120;37.660;2023-05-07T02:51:22;14.95;62.83
64652;HTU21D;51062;45.120;37.660;2023-05-07T02:53:49;14.92;62.82
64652;HTU21D;51062;45.120;37.660;2023-05-07T02:56:17;14.91;62.86
64652;HTU21D;51062;45.120;37.660;2023-05-07T02:58:43;14.87;62.91
64652;HTU21D;51062;45.120;37.660;2023-05-07T03:01:12;14.84;62.86
64652;HTU21D;51062;45.120;37.660;2023-05-07T03:03:56;14.73;62.89
64652;HTU21D;51062;45.120;37.660;2023-05-07T03:06:22;14.52;63.18
64652;HTU21D;51062;45.120;37.660;2023-05-07T03:08:48;14.28;63.50
64652;HTU21D;51062;45.120;37.660;2023-05-07T03:11:17;14.08;63.88
64652;HTU21D;51062;45.120;37.660;2023-05-07T03:13:44;13.92;64.19
64652;HTU21D;51062;45.120;37.660;2023-05-07T03:16:13;13.80;64.47
64652;HTU21D;51062;45.120;37.660;2023-05-07T03:18:39;13.69;64.68
64652;HTU21D;51062;45.120;37.660;2023-05-07T03:21:06;13.63;64.82
64652;HTU21D;51062;45.120;37.660;2023-05-07T03:23:32;13.56;64.95
64652;HTU21D;51062;45.120;37.660;2023-05-07T03:25:59;13.52;65.02
64652;HTU21D;51062;45.120;37.660;2023-05-07T03:28:25;13.49;65.11
64652;HTU21D;51062;45.120;37.660;2023-05-07T03:30:57;13.47;65.21
64652;HTU21D;51062;45.120;37.660;2023-05-07T03:33:25;13.45;65.29
64652;HTU21D;51062;45.120;37.660;2023-05-07T03:35:55;13.47;65.30
64652;HTU21D;51062;45.120;37.660;2023-05-07T03:38:24;13.47;65.33
64652;HTU21D;51062;45.120;37.660;2023-05-07T03:40:56;13.44;65.33
64652;HTU21D;51062;45.120;37.660;2023-05-07T03:43:24;13.45;65.40
64652;HTU21D;51062;45.120;37.660;2023-05-07T03:46:00;13.44;65.44
64652;HTU21D;51062;45.120;37.660;2023-05-07T03:48:28;13.41;65.47
64652;HTU21D;51062;45.120;37.660;2023-05-07T03:50:58;13.41;65.54
64652;HTU21D;51062;45.120;37.660;2023-05-07T03:53:28;13.41;65.54
64652;HTU21D;51062;45.120;37.660;2023-05-07T03:55:54;13.39;65.52
64652;HTU21D;51062;45.120;37.660;2023-05-07T03:58:22;13.35;65.61
64652;HTU21D;51062;45.120;37.660;2023-05-07T04:00:50;13.33;65.72
64652;HTU21D;51062;45.120;37.660;2023-05-07T04:03:26;13.31;65.81
64652;HTU21D;51062;45.120;37.660;2023-05-07T04:06:17;13.30;65.85
64652;HTU21D;51062;45.120;37.660;2023-05-07T04:08:45;13.27;65.85
64652;HTU21D;51062;45.120;37.660;2023-05-07T04:11:12;13.25;65.88
64652;HTU21D;51062;45.120;37.660;2023-05-07T04:13:40;13.20;65.98
64652;HTU21D;51062;45.120;37.660;2023-05-07T04:16:08;13.17;66.05
64652;HTU21D;51062;45.120;37.660;2023-05-07T04:18:39;13.17;66.09
64652;HTU21D;51062;45.120;37.660;2023-05-07T04:21:15;13.16;66.22
64652;HTU21D;51062;45.120;37.660;2023-05-07T04:23:43;13.16;66.23
64652;HTU21D;51062;45.120;37.660;2023-05-07T04:26:11;13.15;66.24
64652;HTU21D;51062;45.120;37.660;2023-05-07T04:28:42;13.16;66.29
64652;HTU21D;51062;45.120;37.660;2023-05-07T04:31:08;13.17;66.32
64652;HTU21D;51062;45.120;37.660;2023-05-07T04:33:37;13.17;66.37
64652;HTU21D;51062;45.120;37.660;2023-05-07T04:36:09;13.18;66.44
64652;HTU21D;51062;45.120;37.660;2023-05-07T04:38:46;13.20;66.52
64652;HTU21D;51062;45.120;37.660;2023-05-07T04:41:14;13.22;66.52
64652;HTU21D;51062;45.120;37.660;2023-05-07T04:43:43;13.27;66.52
64652;HTU21D;51062;45.120;37.660;2023-05-07T04:46:13;13.32;66.47
64652;HTU21D;51062;45.120;37.660;2023-05-07T04:48:42;13.36;66.51
64652;HTU21D;51062;45.120;37.660;2023-05-07T04:51:12;13.40;66.52
64652;HTU21D;51062;45.120;37.660;2023-05-07T04:53:39;13.44;66.54
64652;HTU21D;51062;45.120;37.660;2023-05-07T04:56:05;13.47;66.49
64652;HTU21D;51062;45.120;37.660;2023-05-07T04:58:38;13.48;66.52
64652;HTU21D;51062;45.120;37.660;2023-05-07T05:01:04;13.49;66.56
64652;HTU21D;51062;45.120;37.660;2023-05-07T05:03:32;13.51;66.61
64652;HTU21D;51062;45.120;37.660;2023-05-07T05:05:59;13.55;66.61
64652;HTU21D;51062;45.120;37.660;2023-05-07T05:08:29;13.58;66.59
64652;HTU21D;51062;45.120;37.660;2023-05-07T05:10:56;13.58;66.55
64652;HTU21D;51062;45.120;37.660;2023-05-07T05:13:25;13.59;66.57
64652;HTU21D;51062;45.120;37.660;2023-05-07T05:15:52;13.60;66.65
64652;HTU21D;51062;45.120;37.660;2023-05-07T05:18:18;13.61;66.65
64652;HTU21D;51062;45.120;37.660;2023-05-07T05:20:45;13.63;66.68
64652;HTU21D;51062;45.120;37.660;2023-05-07T05:23:12;13.66;66.72
64652;HTU21D;51062;45.120;37.660;2023-05-07T05:25:39;13.69;66.77
64652;HTU21D;51062;45.120;37.660;2023-05-07T05:28:09;13.78;66.80
64652;HTU21D;51062;45.120;37.660;2023-05-07T05:30:43;13.89;66.78
64652;HTU21D;51062;45.120;37.660;2023-05-07T05:33:11;14.01;66.81
64652;HTU21D;51062;45.120;37.660;2023-05-07T05:35:38;14.14;66.69
64652;HTU21D;51062;45.120;37.660;2023-05-07T05:38:25;14.28;66.66
64652;HTU21D;51062;45.120;37.660;2023-05-07T05:40:54;14.41;66.69
64652;HTU21D;51062;45.120;37.660;2023-05-07T05:43:24;14.57;66.65
64652;HTU21D;51062;45.120;37.660;2023-05-07T05:45:51;14.69;66.59
64652;HTU21D;51062;45.120;37.660;2023-05-07T05:48:23;14.82;66.55
64652;HTU21D;51062;45.120;37.660;2023-05-07T05:51:10;14.89;66.54
64652;HTU21D;51062;45.120;37.660;2023-05-07T05:53:36;14.99;66.52
64652;HTU21D;51062;45.120;37.660;2023-05-07T05:56:05;15.14;66.46
64652;HTU21D;51062;45.120;37.660;2023-05-07T05:58:35;15.25;66.30
64652;HTU21D;51062;45.120;37.660;2023-05-07T06:01:05;15.28;66.14
64652;HTU21D;51062;45.120;37.660;2023-05-07T06:03:31;15.26;66.23
64652;HTU21D;51062;45.120;37.660;2023-05-07T06:06:18;15.27;66.31
64652;HTU21D;51062;45.120;37.660;2023-05-07T06:08:45;15.29;66.38
64652;HTU21D;51062;45.120;37.660;2023-05-07T06:11:16;15.32;66.45
64652;HTU21D;51062;45.120;37.660;2023-05-07T06:13:46;15.38;66.46
64652;HTU21D;51062;45.120;37.660;2023-05-07T06:16:15;15.39;66.51
64652;HTU21D;51062;45.120;37.660;2023-05-07T06:18:45;15.45;66.64
64652;HTU21D;51062;45.120;37.660;2023-05-07T06:21:14;15.55;66.51
64652;HTU21D;51062;45.120;37.660;2023-05-07T06:23:41;15.60;66.53
64652;HTU21D;51062;45.120;37.660;2023-05-07T06:26:07;15.62;66.59
64652;HTU21D;51062;45.120;37.660;2023-05-07T06:28:38;15.67;66.60
64652;HTU21D;51062;45.120;37.660;2023-05-07T06:31:16;15.72;66.62
64652;HTU21D;51062;45.120;37.660;2023-05-07T06:33:50;15.78;66.57
64652;HTU21D;51062;45.120;37.660;2023-05-07T06:36:18;15.91;66.51
64652;HTU21D;51062;45.120;37.660;2023-05-07T06:38:48;16.07;66.49
64652;HTU21D;51062;45.120;37.660;2023-05-07T06:41:15;16.12;66.40
64652;HTU21D;51062;45.120;37.660;2023-05-07T06:43:41;16.24;66.63
64652;HTU21D;51062;45.120;37.660;2023-05-07T06:46:35;16.52;66.71
64652;HTU21D;51062;45.120;37.660;2023-05-07T06:49:03;16.65;66.30
64652;HTU21D;51062;45.120;37.660;2023-05-07T06:51:30;16.58;66.13
64652;HTU21D;51062;45.120;37.660;2023-05-07T06:54:00;16.50;66.18
64652;HTU21D;51062;45.120;37.660;2023-05-07T06:56:29;16.50;66.42
64652;HTU21D;51062;45.120;37.660;2023-05-07T06:58:55;16.50;66.35
64652;HTU21D;51062;45.120;37.660;2023-05-07T07:01:24;16.45;66.27
64652;HTU21D;51062;45.120;37.660;2023-05-07T07:03:52;16.45;66.29
64652;HTU21D;51062;45.120;37.660;2023-05-07T07:06:39;16.54;66.42
64652;HTU21D;51062;45.120;37.660;2023-05-07T07:09:09;16.77;66.47
64652;HTU21D;51062;45.120;37.660;2023-05-07T07:11:36;17.03;66.24
64652;HTU21D;51062;45.120;37.660;2023-05-07T07:14:03;17.07;65.79
64652;HTU21D;51062;45.120;37.660;2023-05-07T07:16:35;17.05;65.72
64652;HTU21D;51062;45.120;37.660;2023-05-07T07:19:04;17.02;65.65
64652;HTU21D;51062;45.120;37.660;2023-05-07T07:21:30;16.91;65.71
64652;HTU21D;51062;45.120;37.660;2023-05-07T07:23:58;16.81;65.83
64652;HTU21D;51062;45.120;37.660;2023-05-07T07:26:45;16.88;65.91
64652;HTU21D;51062;45.120;37.660;2023-05-07T07:29:14;17.01;65.93
64652;HTU21D;51062;45.120;37.660;2023-05-07T07:31:42;17.10;65.66
64652;HTU21D;51062;45.120;37.660;2023-05-07T07:34:09;17.11;65.46
64652;HTU21D;51062;45.120;37.660;2023-05-07T07:36:35;17.03;65.44
64652;HTU21D;51062;45.120;37.660;2023-05-07T07:39:23;16.88;65.28
64652;HTU21D;51062;45.120;37.660;2023-05-07T07:41:52;16.76;65.42
64652;HTU21D;51062;45.120;37.660;2023-05-07T07:44:20;16.66;65.37
64652;HTU21D;51062;45.120;37.660;2023-05-07T07:46:52;16.55;65.46
64652;HTU21D;51062;45.120;37.660;2023-05-07T07:49:20;16.47;65.52
64652;HTU21D;51062;45.120;37.660;2023-05-07T07:51:50;16.43;65.62
64652;HTU21D;51062;45.120;37.660;2023-05-07T07:54:17;16.41;65.62
64652;HTU21D;51062;45.120;37.660;2023-05-07T07:56:44;16.39;65.62
64652;HTU21D;51062;45.120;37.660;2023-05-07T07:59:13;16.34;65.59
64652;HTU21D;51062;45.120;37.660;2023-05-07T08:01:44;16.31;65.57
64652;HTU21D;51062;45.120;37.660;2023-05-07T08:04:12;16.29;65.62
64652;HTU21D;51062;45.120;37.660;2023-05-07T08:06:41;16.31;65.69
64652;HTU21D;51062;45.120;37.660;2023-05-07T08:09:10;16.34;65.60
64652;HTU21D;51062;45.120;37.660;2023-05-07T08:12:00;16.30;65.45
64652;HTU21D;51062;45.120;37.660;2023-05-07T08:14:30;16.22;65.51
64652;HTU21D;51062;45.120;37.660;2023-05-07T08:17:17;16.11;65.62
64652;HTU21D;51062;45.120;37.660;2023-05-07T08:19:50;16.05;65.61
64652;HTU21D;51062;45.120;37.660;2023-05-07T08:22:16;15.99;65.61
64652;HTU21D;51062;45.120;37.660;2023-05-07T08:24:45;15.92;65.68
64652;HTU21D;51062;45.120;37.660;2023-05-07T08:27:12;15.88;65.71
64652;HTU21D;51062;45.120;37.660;2023-05-07T08:29:44;15.88;65.73
64652;HTU21D;51062;45.120;37.660;2023-05-07T08:32:15;15.87;65.77
64652;HTU21D;51062;45.120;37.660;2023-05-07T08:34:42;15.91;65.75
64652;HTU21D;51062;45.120;37.660;2023-05-07T08:37:10;15.91;65.73
64652;HTU21D;51062;45.120;37.660;2023-05-07T08:39:38;15.95;65.69
64652;HTU21D;51062;45.120;37.660;2023-05-07T08:42:12;15.97;65.66
64652;HTU21D;51062;45.120;37.660;2023-05-07T08:44:44;15.98;65.61
64652;HTU21D;51062;45.120;37.660;2023-05-07T08:47:44;16.00;65.62
64652;HTU21D;51062;45.120;37.660;2023-05-07T08:50:20;16.03;65.66
64652;HTU21D;51062;45.120;37.660;2023-05-07T08:52:47;16.14;65.59
64652;HTU21D;51062;45.120;37.660;2023-05-07T08:55:16;16.26;65.50
64652;HTU21D;51062;45.120;37.660;2023-05-07T08:57:48;16.35;65.39
64652;HTU21D;51062;45.120;37.660;2023-05-07T09:00:17;16.45;65.33
64652;HTU21D;51062;45.120;37.660;2023-05-07T09:02:48;16.51;65.27
64652;HTU21D;51062;45.120;37.660;2023-05-07T09:05:17;16.58;65.26
64652;HTU21D;51062;45.120;37.660;2023-05-07T09:07:48;16.72;65.21
64652;HTU21D;51062;45.120;37.660;2023-05-07T09:10:17;16.88;65.09
64652;HTU21D;51062;45.120;37.660;2023-05-07T09:12:46;16.99;64.99
64652;HTU21D;51062;45.120;37.660;2023-05-07T09:15:16;17.03;64.86
64652;HTU21D;51062;45.120;37.660;2023-05-07T09:17:44;17.05;64.90
64652;HTU21D;51062;45.120;37.660;2023-05-07T09:20:10;17.08;64.89
64652;HTU21D;51062;45.120;37.660;2023-05-07T09:22:38;17.11;64.88
64652;HTU21D;51062;45.120;37.660;2023-05-07T09:25:09;17.16;64.86
64652;HTU21D;51062;45.120;37.660;2023-05-07T09:27:37;17.21;64.81
64652;HTU21D;51062;45.120;37.660;2023-05-07T09:30:06;17.21;64.77
64652;HTU21D;51062;45.120;37.660;2023-05-07T09:32:36;17.21;64.73
64652;HTU21D;51062;45.120;37.660;2023-05-07T09:35:16;17.20;64.66
64652;HTU21D;51062;45.120;37.660;2023-05-07T09:38:12;17.19;64.71
64652;HTU21D;51062;45.120;37.660;2023-05-07T09:40:40;17.16;64.72
64652;HTU21D;51062;45.120;37.660;2023-05-07T09:43:13;17.16;64.78
64652;HTU21D;51062;45.120;37.660;2023-05-07T09:45:56;17.17;64.78
64652;HTU21D;51062;45.120;37.660;2023-05-07T09:48:27;17.18;64.76
64652;HTU21D;51062;45.120;37.660;2023-05-07T09:50:56;17.15;64.76
64652;HTU21D;51062;45.120;37.660;2023-05-07T09:53:30;17.06;64.84
64652;HTU21D;51062;45.120;37.660;2023-05-07T09:55:58;17.04;64.88
64652;HTU21D;51062;45.120;37.660;2023-05-07T09:58:26;17.00;64.88
64652;HTU21D;51062;45.120;37.660;2023-05-07T10:00:54;16.95;64.92
64652;HTU21D;51062;45.120;37.660;2023-05-07T10:03:24;16.93;65.02
64652;HTU21D;51062;45.120;37.660;2023-05-07T10:05:58;16.94;65.07
64652;HTU21D;51062;45.120;37.660;2023-05-07T10:08:24;16.98;65.06
64652;HTU21D;51062;45.120;37.660;2023-05-07T10:10:56;17.01;65.05
64652;HTU21D;51062;45.120;37.660;2023-05-07T10:13:24;17.08;65.02
64652;HTU21D;51062;45.120;37.660;2023-05-07T10:15:55;17.17;64.93
64652;HTU21D;51062;45.120;37.660;2023-05-07T10:18:43;17.29;64.87
64652;HTU21D;51062;45.120;37.660;2023-05-07T10:21:21;17.45;64.85
64652;HTU21D;51062;45.120;37.660;2023-05-07T10:23:51;17.58;64.78
64652;HTU21D;51062;45.120;37.660;2023-05-07T10:26:21;17.76;64.74
64652;HTU21D;51062;45.120;37.660;2023-05-07T10:32:30;18.05;64.47
64652;HTU21D;51062;45.120;37.660;2023-05-07T10:35:03;18.14;64.37
64652;HTU21D;51062;45.120;37.660;2023-05-07T10:37:31;18.21;64.35
64652;HTU21D;51062;45.120;37.660;2023-05-07T10:39:59;18.27;64.26
64652;HTU21D;51062;45.120;37.660;2023-05-07T10:42:28;18.30;64.18
64652;HTU21D;51062;45.120;37.660;2023-05-07T10:44:55;18.34;64.19
64652;HTU21D;51062;45.120;37.660;2023-05-07T10:47:28;18.40;64.14
64652;HTU21D;51062;45.120;37.660;2023-05-07T10:52:41;18.30;63.91
64652;HTU21D;51062;45.120;37.660;2023-05-07T10:55:29;18.23;64.05
64652;HTU21D;51062;45.120;37.660;2023-05-07T10:58:24;18.18;64.02
64652;HTU21D;51062;45.120;37.660;2023-05-07T11:01:01;18.09;64.02
64652;HTU21D;51062;45.120;37.660;2023-05-07T11:03:34;17.99;64.11
64652;HTU21D;51062;45.120;37.660;2023-05-07T11:08:52;17.84;64.23
64652;HTU21D;51062;45.120;37.660;2023-05-07T11:11:46;17.82;64.28
64652;HTU21D;51062;45.120;37.660;2023-05-07T11:17:10;17.83;64.24
64652;HTU21D;51062;45.120;37.660;2023-05-07T11:19:56;17.83;64.21
64652;HTU21D;51062;45.120;37.660;2023-05-07T11:22:38;17.78;64.18
64652;HTU21D;51062;45.120;37.660;2023-05-07T11:25:19;17.76;64.21
64652;HTU21D;51062;45.120;37.660;2023-05-07T11:27:50;17.70;64.29
64652;HTU21D;51062;45.120;37.660;2023-05-07T11:30:18;17.64;64.33
64652;HTU21D;51062;45.120;37.660;2023-05-07T11:32:47;17.60;64.36
64652;HTU21D;51062;45.120;37.660;2023-05-07T11:35:15;17.56;64.38
64652;HTU21D;51062;45.120;37.660;2023-05-07T11:37:43;17.56;64.40
64652;HTU21D;51062;45.120;37.660;2023-05-07T11:40:11;17.58;64.35
64652;HTU21D;51062;45.120;37.660;2023-05-07T11:42:40;17.59;64.34
64652;HTU21D;51062;45.120;37.660;2023-05-07T11:45:08;17.61;64.37
64652;HTU21D;51062;45.120;37.660;2023-05-07T11:47:35;17.60;64.40
64652;HTU21D;51062;45.120;37.660;2023-05-07T11:50:06;17.59;64.48
64652;HTU21D;51062;45.120;37.660;2023-05-07T11:52:34;17.55;64.44
64652;HTU21D;51062;45.120;37.660;2023-05-07T11:55:01;17.55;64.50
64652;HTU21D;51062;45.120;37.660;2023-05-07T11:57:29;17.51;64.69
64652;HTU21D;51062;45.120;37.660;2023-05-07T11:59:56;17.47;64.76
64652;HTU21D;51062;45.120;37.660;2023-05-07T12:02:23;17.45;64.89
64652;HTU21D;51062;45.120;37.660;2023-05-07T12:04:54;17.40;65.05
64652;HTU21D;51062;45.120;37.660;2023-05-07T12:07:23;17.39;65.07
64652;HTU21D;51062;45.120;37.660;2023-05-07T12:09:49;17.43;65.01
64652;HTU21D;51062;45.120;37.660;2023-05-07T12:12:16;17.46;64.98
64652;HTU21D;51062;45.120;37.660;2023-05-07T12:14:45;17.50;64.91
64652;HTU21D;51062;45.120;37.660;2023-05-07T12:17:13;17.51;64.82
64652;HTU21D;51062;45.120;37.660;2023-05-07T12:19:41;17.49;64.79
64652;HTU21D;51062;45.120;37.660;2023-05-07T12:22:09;17.46;64.81
64652;HTU21D;51062;45.120;37.660;2023-05-07T12:24:49;17.46;64.95
64652;HTU21D;51062;45.120;37.660;2023-05-07T12:27:16;17.44;64.98
64652;HTU21D;51062;45.120;37.660;2023-05-07T12:29:46;17.41;64.93
64652;HTU21D;51062;45.120;37.660;2023-05-07T12:32:14;17.40;64.91
64652;HTU21D;51062;45.120;37.660;2023-05-07T12:34:43;17.35;64.91
64652;HTU21D;51062;45.120;37.660;2023-05-07T12:37:10;17.29;64.95
64652;HTU21D;51062;45.120;37.660;2023-05-07T12:39:37;17.24;65.11
64652;HTU21D;51062;45.120;37.660;2023-05-07T12:42:04;17.18;65.18
64652;HTU21D;51062;45.120;37.660;2023-05-07T12:44:50;17.15;65.32
64652;HTU21D;51062;45.120;37.660;2023-05-07T12:47:18;17.13;65.35
64652;HTU21D;51062;45.120;37.660;2023-05-07T12:49:44;17.13;65.30
64652;HTU21D;51062;45.120;37.660;2023-05-07T12:52:34;17.10;65.30
64652;HTU21D;51062;45.120;37.660;2023-05-07T12:55:07;17.10;65.27
64652;HTU21D;51062;45.120;37.660;2023-05-07T12:57:42;17.05;65.32
64652;HTU21D;51062;45.120;37.660;2023-05-07T13:00:09;17.01;65.21
64652;HTU21D;51062;45.120;37.660;2023-05-07T13:02:58;16.93;65.28
64652;HTU21D;51062;45.120;37.660;2023-05-07T13:05:27;16.89;65.42
64652;HTU21D;51062;45.120;37.660;2023-05-07T13:07:57;16.84;65.44
64652;HTU21D;51062;45.120;37.660;2023-05-07T13:10:24;16.81;65.45
64652;HTU21D;51062;45.120;37.660;2023-05-07T13:12:51;16.78;65.47
64652;HTU21D;51062;45.120;37.660;2023-05-07T13:15:17;16.76;65.50
64652;HTU21D;51062;45.120;37.660;2023-05-07T13:17:44;16.71;65.46
64652;HTU21D;51062;45.120;37.660;2023-05-07T13:20:13;16.66;65.50
64652;HTU21D;51062;45.120;37.660;2023-05-07T13:22:39;16.58;65.47
64652;HTU21D;51062;45.120;37.660;2023-05-07T13:25:06;16.47;65.56
64652;HTU21D;51062;45.120;37.660;2023-05-07T13:27:34;16.35;65.70
64652;HTU21D;51062;45.120;37.660;2023-05-07T13:30:05;16.26;65.94
64652;HTU21D;51062;45.120;37.660;2023-05-07T13:32:32;16.16;66.37
64652;HTU21D;51062;45.120;37.660;2023-05-07T13:34:58;16.11;66.69
64652;HTU21D;51062;45.120;37.660;2023-05-07T13:37:24;16.07;66.78
64652;HTU21D;51062;45.120;37.660;2023-05-07T13:39:50;16.03;66.78
64652;HTU21D;51062;45.120;37.660;2023-05-07T13:42:17;15.98;66.77
64652;HTU21D;51062;45.120;37.660;2023-05-07T13:44:43;15.91;66.81
64652;HTU21D;51062;45.120;37.660;2023-05-07T13:47:10;15.84;67.01
64652;HTU21D;51062;45.120;37.660;2023-05-07T13:49:36;15.76;67.20
64652;HTU21D;51062;45.120;37.660;2023-05-07T13:52:03;15.68;67.33
64652;HTU21D;51062;45.120;37.660;2023-05-07T13:54:29;15.58;67.46
64652;HTU21D;51062;45.120;37.660;2023-05-07T13:56:56;15.52;67.55
64652;HTU21D;51062;45.120;37.660;2023-05-07T13:59:22;15.43;67.75
64652;HTU21D;51062;45.120;37.660;2023-05-07T14:01:48;15.32;68.07
64652;HTU21D;51062;45.120;37.660;2023-05-07T14:04:16;15.26;68.34
64652;HTU21D;51062;45.120;37.660;2023-05-07T14:06:43;15.22;68.47
64652;HTU21D;51062;45.120;37.660;2023-05-07T14:09:09;15.21;68.50
64652;HTU21D;51062;45.120;37.660;2023-05-07T14:11:38;15.16;68.51
64652;HTU21D;51062;45.120;37.660;2023-05-07T14:14:05;15.17;68.49
64652;HTU21D;51062;45.120;37.660;2023-05-07T14:16:31;15.19;68.52
64652;HTU21D;51062;45.120;37.660;2023-05-07T14:18:57;15.19;68.49
64652;HTU21D;51062;45.120;37.660;2023-05-07T14:21:23;15.15;68.49
64652;HTU21D;51062;45.120;37.660;2023-05-07T14:23:49;15.13;68.53
64652;HTU21D;51062;45.120;37.660;2023-05-07T14:26:16;15.12;68.58
64652;HTU21D;51062;45.120;37.660;2023-05-07T14:28:44;15.12;68.57
64652;HTU21D;51062;45.120;37.660;2023-05-07T14:31:31;15.12;68.58
64652;HTU21D;51062;45.120;37.660;2023-05-07T14:33:59;15.12;68.55
64652;HTU21D;51062;45.120;37.660;2023-05-07T14:36:25;15.09;68.59
64652;HTU21D;51062;45.120;37.660;2023-05-07T14:38:53;15.04;68.62
64652;HTU21D;51062;45.120;37.660;2023-05-07T14:41:26;15.00;68.66
64652;HTU21D;51062;45.120;37.660;2023-05-07T14:44:01;14.98;68.78
64652;HTU21D;51062;45.120;37.660;2023-05-07T14:46:32;14.97;68.82
64652;HTU21D;51062;45.120;37.660;2023-05-07T14:49:01;14.96;68.87
64652;HTU21D;51062;45.120;37.660;2023-05-07T14:51:48;14.97;69.00
64652;HTU21D;51062;45.120;37.660;2023-05-07T14:54:37;14.98;68.87
64652;HTU21D;51062;45.120;37.660;2023-05-07T14:57:05;14.99;68.85
64652;HTU21D;51062;45.120;37.660;2023-05-07T14:59:33;14.99;68.91
64652;HTU21D;51062;45.120;37.660;2023-05-07T15:01:59;15.01;68.94
64652;HTU21D;51062;45.120;37.660;2023-05-07T15:04:25;15.02;68.93
64652;HTU21D;51062;45.120;37.660;2023-05-07T15:06:51;15.03;68.97
64652;HTU21D;51062;45.120;37.660;2023-05-07T15:09:19;15.03;69.00
64652;HTU21D;51062;45.120;37.660;2023-05-07T15:11:47;15.02;69.04
64652;HTU21D;51062;45.120;37.660;2023-05-07T15:14:13;15.02;69.10
64652;HTU21D;51062;45.120;37.660;2023-05-07T15:16:39;15.02;69.15
64652;HTU21D;51062;45.120;37.660;2023-05-07T15:19:05;15.03;69.19
64652;HTU21D;51062;45.120;37.660;2023-05-07T15:21:31;15.01;69.16
64652;HTU21D;51062;45.120;37.660;2023-05-07T15:24:01;15.00;69.18
64652;HTU21D;51062;45.120;37.660;2023-05-07T15:26:29;14.99;69.20
64652;HTU21D;51062;45.120;37.660;2023-05-07T15:28:55;14.97;69.29
64652;HTU21D;51062;45.120;37.660;2023-05-07T15:31:24;14.97;69.33
64652;HTU21D;51062;45.120;37.660;2023-05-07T15:33:51;14.97;69.36